createdAt,value
2023-05-17T00:02:00.914Z,101104.72
2023-05-17T00:04:32.058Z,101110.09
2023-05-17T00:07:02.175Z,101119.72
2023-05-17T00:09:32.396Z,101109.75
2023-05-17T00:12:06.111Z,101116.75
2023-05-17T00:14:37.056Z,101118.56
2023-05-17T00:17:07.668Z,101123.31
2023-05-17T00:19:38.546Z,101135.19
2023-05-17T00:22:09.887Z,101148.25
2023-05-17T00:24:40.459Z,101145.75
2023-05-17T00:27:10.920Z,101142.97
2023-05-17T00:29:41.428Z,101144.00
2023-05-17T00:32:14.212Z,101145.75
2023-05-17T00:34:44.826Z,101160.75
2023-05-17T00:37:15.443Z,101167.13
2023-05-17T00:39:45.978Z,101167.44
2023-05-17T00:42:17.111Z,101174.81
2023-05-17T00:44:47.565Z,101175.75
2023-05-17T00:47:18.030Z,101179.53
2023-05-17T00:49:49.268Z,101184.41
2023-05-17T00:52:19.369Z,101191.94
2023-05-17T00:54:49.725Z,101194.34
2023-05-17T00:57:20.852Z,101202.50
2023-05-17T00:59:53.995Z,101212.13
2023-05-17T01:02:24.893Z,101207.56
2023-05-17T01:04:55.663Z,101217.66
2023-05-17T01:07:26.586Z,101211.31
2023-05-17T01:09:57.995Z,101217.00
2023-05-17T01:12:46.406Z,101217.66
2023-05-17T01:15:21.348Z,101216.84
2023-05-17T01:18:24.841Z,101215.22
2023-05-17T01:20:58.598Z,101225.16
2023-05-17T01:24:15.672Z,101227.59
2023-05-17T01:26:49.331Z,101221.06
2023-05-17T01:29:24.117Z,101223.19
2023-05-17T01:31:55.374Z,101223.19
2023-05-17T01:34:30.940Z,101232.66
2023-05-17T01:37:01.405Z,101233.16
2023-05-17T01:39:33.733Z,101240.63
2023-05-17T01:42:33.059Z,101245.03
2023-05-17T01:45:11.765Z,101246.50
2023-05-17T01:47:54.553Z,101244.88
2023-05-17T01:50:30.011Z,101240.47
2023-05-17T01:53:08.700Z,101248.13
2023-05-17T01:55:54.350Z,101257.75
2023-05-17T01:58:29.229Z,101256.59
2023-05-17T02:01:03.597Z,101253.84
2023-05-17T02:03:34.097Z,101254.66
2023-05-17T02:06:04.847Z,101254.31
2023-05-17T02:08:35.932Z,101250.41
2023-05-17T02:11:06.443Z,101251.25
2023-05-17T02:13:36.976Z,101254.03
2023-05-17T02:16:07.746Z,101242.59
2023-05-17T02:18:40.366Z,101240.16
2023-05-17T02:21:11.352Z,101251.41
2023-05-17T02:23:41.911Z,101253.69
2023-05-17T02:26:12.454Z,101249.78
2023-05-17T02:28:42.965Z,101256.13
2023-05-17T02:31:13.716Z,101256.94
2023-05-17T02:33:44.217Z,101245.03
2023-05-17T02:36:14.734Z,101242.75
2023-05-17T02:38:46.182Z,101245.03
2023-05-17T02:41:16.751Z,101245.72
2023-05-17T02:43:47.915Z,101238.69
2023-05-17T02:46:18.456Z,101237.84
2023-05-17T02:48:48.878Z,101239.50
2023-05-17T02:51:19.314Z,101237.22
2023-05-17T02:53:49.842Z,101239.69
2023-05-17T02:56:20.228Z,101238.84
2023-05-17T02:58:50.849Z,101238.69
2023-05-17T03:01:23.068Z,101233.78
2023-05-17T03:03:55.435Z,101229.38
2023-05-17T03:06:26.489Z,101228.75
2023-05-17T03:08:56.929Z,101215.53
2023-05-17T03:11:27.602Z,101213.25
2023-05-17T03:14:02.037Z,101210.81
2023-05-17T03:16:34.187Z,101208.34
2023-05-17T03:19:05.122Z,101201.34
2023-05-17T03:21:35.672Z,101207.72
2023-05-17T03:24:07.355Z,101206.72
2023-05-17T03:26:39.981Z,101201.03
2023-05-17T03:29:13.412Z,101203.16
2023-05-17T03:31:46.336Z,101201.50
2023-05-17T03:34:18.109Z,101198.09
2023-05-17T03:36:51.608Z,101198.56
2023-05-17T03:39:23.166Z,101200.19
2023-05-17T03:41:54.366Z,101199.38
2023-05-17T03:44:26.245Z,101193.50
2023-05-17T03:46:57.947Z,101185.53
2023-05-17T03:49:28.517Z,101187.47
2023-05-17T03:51:59.262Z,101183.06
2023-05-17T03:54:29.549Z,101186.31
2023-05-17T03:57:00.046Z,101185.03
2023-05-17T03:59:30.596Z,101168.41
2023-05-17T04:02:01.402Z,101170.53
2023-05-17T04:04:34.698Z,101164.63
2023-05-17T04:07:05.452Z,101163.00
2023-05-17T04:09:37.546Z,101173.44
2023-05-17T04:12:08.303Z,101157.66
2023-05-17T04:14:38.978Z,101153.91
2023-05-17T04:17:10.212Z,101151.41
2023-05-17T04:19:40.712Z,101161.72
2023-05-17T04:22:11.265Z,101150.63
2023-05-17T04:24:41.576Z,101149.47
2023-05-17T04:27:12.664Z,101153.88
2023-05-17T04:29:45.315Z,101145.38
2023-05-17T04:32:16.680Z,101140.97
2023-05-17T04:34:47.085Z,101138.03
2023-05-17T04:37:19.367Z,101132.00
2023-05-17T04:39:53.903Z,101130.69
2023-05-17T04:42:24.534Z,101118.78
2023-05-17T04:45:02.033Z,101124.00
2023-05-17T04:47:33.477Z,101125.16
2023-05-17T04:50:07.114Z,101116.97
2023-05-17T04:52:39.067Z,101114.88
2023-05-17T04:55:11.020Z,101109.31
2023-05-17T04:57:41.392Z,101116.50
2023-05-17T05:00:17.033Z,101111.44
2023-05-17T05:02:54.328Z,101109.16
2023-05-17T05:05:27.621Z,101099.19
2023-05-17T05:07:58.711Z,101090.09
2023-05-17T05:10:32.901Z,101084.06
2023-05-17T05:13:03.366Z,101079.00
2023-05-17T05:15:35.865Z,101077.84
2023-05-17T05:18:07.825Z,101072.97
2023-05-17T05:20:39.543Z,101070.66
2023-05-17T05:23:10.659Z,101065.59
2023-05-17T05:25:42.046Z,101061.22
2023-05-17T05:28:14.641Z,101053.03
2023-05-17T05:30:45.625Z,101041.94
2023-05-17T05:33:17.923Z,101038.81
2023-05-17T05:35:49.788Z,101035.09
2023-05-17T05:38:20.116Z,101022.84
2023-05-17T05:40:51.313Z,101020.56
2023-05-17T05:43:21.645Z,101026.09
2023-05-17T05:45:52.737Z,101009.63
2023-05-17T05:48:24.868Z,101001.75
2023-05-17T05:50:55.564Z,101001.75
2023-05-17T05:53:28.106Z,101001.44
2023-05-17T05:55:59.342Z,100977.63
2023-05-17T05:58:30.146Z,100983.66
2023-05-17T06:01:00.764Z,100984.94
2023-05-17T06:03:31.759Z,100974.66
2023-05-17T06:06:02.853Z,100969.91
2023-05-17T06:08:33.303Z,100968.28
2023-05-17T06:11:03.939Z,100972.34
2023-05-17T06:13:34.131Z,100962.06
2023-05-17T06:16:04.996Z,100960.09
2023-05-17T06:18:36.989Z,100955.03
2023-05-17T06:21:07.628Z,100944.94
2023-05-17T06:23:38.056Z,100937.13
2023-05-17T06:26:13.188Z,100934.66
2023-05-17T06:28:43.471Z,100937.25
2023-05-17T06:31:13.807Z,100922.56
2023-05-17T06:33:44.344Z,100920.59
2023-05-17T06:36:15.644Z,100912.75
2023-05-17T06:38:46.270Z,100914.72
2023-05-17T06:41:17.998Z,100906.19
2023-05-17T06:43:50.056Z,100895.09
2023-05-17T06:46:20.851Z,100899.59
2023-05-17T06:48:51.639Z,100895.69
2023-05-17T06:51:22.145Z,100891.50
2023-05-17T06:53:52.834Z,100885.28
2023-05-17T06:56:23.351Z,100874.78
2023-05-17T06:58:54.092Z,100871.06
2023-05-17T07:01:26.401Z,100872.69
2023-05-17T07:03:56.931Z,100872.34
2023-05-17T07:06:27.909Z,100866.66
2023-05-17T07:08:59.748Z,100859.97
2023-05-17T07:11:30.838Z,100859.03
2023-05-17T07:14:01.000Z,100852.44
2023-05-17T07:16:32.914Z,100837.78
2023-05-17T07:19:03.535Z,100829.94
2023-05-17T07:21:34.969Z,100824.50
2023-05-17T07:24:05.511Z,100819.50
2023-05-17T07:26:36.047Z,100822.09
2023-05-17T07:29:07.701Z,100812.25
2023-05-17T07:31:38.377Z,100815.03
2023-05-17T07:34:09.355Z,100805.56
2023-05-17T07:36:39.796Z,100794.47
2023-05-17T07:39:14.989Z,100794.94
2023-05-17T08:28:22.352Z,100721.75
2023-05-17T08:30:53.349Z,100714.03
2023-05-17T08:33:26.882Z,100710.13
2023-05-17T08:35:59.787Z,100690.31
2023-05-17T08:38:31.009Z,100705.38
2023-05-17T08:41:02.269Z,100709.31
2023-05-17T08:43:36.023Z,100689.44
2023-05-17T08:46:06.767Z,100685.03
2023-05-17T08:48:39.248Z,100687.44
2023-05-17T08:51:11.441Z,100684.78
2023-05-17T08:53:42.051Z,100682.84
2023-05-17T08:56:13.749Z,100676.13
2023-05-17T09:01:23.597Z,100688.03
2023-05-17T09:03:56.129Z,100677.63
2023-05-17T09:06:27.457Z,100673.56
2023-05-17T09:08:58.346Z,100678.06
2023-05-17T09:11:30.547Z,100677.28
2023-05-17T09:14:08.757Z,100677.28
2023-05-17T09:16:40.543Z,100671.25
2023-05-17T09:19:14.962Z,100667.34
2023-05-17T09:21:50.227Z,100663.03
2023-05-17T09:24:30.454Z,100665.81
2023-05-17T09:27:05.932Z,100667.44
2023-05-17T09:29:38.198Z,100660.84
2023-05-17T09:32:19.730Z,100659.47
2023-05-17T09:34:51.001Z,100655.09
2023-05-17T09:37:23.516Z,100646.41
2023-05-17T09:39:54.048Z,100654.50
2023-05-17T09:42:29.726Z,100663.88
2023-05-17T09:45:00.384Z,100662.03
2023-05-17T09:47:39.488Z,100662.72
2023-05-17T09:50:11.714Z,100663.50
2023-05-17T09:52:42.656Z,100665.13
2023-05-17T09:55:17.882Z,100660.84
2023-05-17T09:57:49.536Z,100665.97
2023-05-17T10:00:23.785Z,100668.72
2023-05-17T10:02:55.205Z,100673.81
2023-05-17T10:05:26.698Z,100674.97
2023-05-17T10:07:59.363Z,100668.59
2023-05-17T10:10:30.620Z,100674.59
2023-05-17T10:13:01.528Z,100675.78
2023-05-17T10:15:32.170Z,100680.06
2023-05-17T10:18:04.050Z,100677.63
2023-05-17T10:20:34.747Z,100682.00
2023-05-17T10:23:08.672Z,100677.75
2023-05-17T10:25:39.876Z,100679.00
2023-05-17T10:28:10.597Z,100683.28
2023-05-17T10:30:42.470Z,100682.94
2023-05-17T10:33:19.153Z,100685.03
2023-05-17T10:35:52.351Z,100689.41
2023-05-17T10:38:26.291Z,100695.19
2023-05-17T10:41:04.896Z,100694.16
2023-05-17T10:43:36.376Z,100701.31
2023-05-17T10:46:07.126Z,100684.91
2023-05-17T10:48:39.601Z,100687.34
2023-05-17T10:51:10.523Z,100688.59
2023-05-17T10:54:05.489Z,100691.72
2023-05-17T10:56:36.928Z,100697.63
2023-05-17T10:59:29.086Z,100702.38
2023-05-17T11:02:08.994Z,100702.63
2023-05-17T11:04:48.102Z,100715.31
2023-05-17T11:07:21.657Z,100716.25
2023-05-17T11:09:55.854Z,100722.94
2023-05-17T11:12:47.045Z,100711.38
2023-05-17T11:15:21.131Z,100724.91
2023-05-17T11:17:59.415Z,100730.81
2023-05-17T11:20:29.916Z,100728.50
2023-05-17T11:23:09.262Z,100726.53
2023-05-17T11:25:41.353Z,100727.34
2023-05-17T11:28:22.949Z,100732.09
2023-05-17T11:30:56.366Z,100742.72
2023-05-17T11:33:49.733Z,100750.38
2023-05-17T11:36:25.836Z,100744.34
2023-05-17T11:39:17.095Z,100742.38
2023-05-17T11:41:55.635Z,100755.09
2023-05-17T11:44:44.328Z,100763.31
2023-05-17T11:47:14.997Z,100772.78
2023-05-17T11:49:45.529Z,100767.91
2023-05-17T11:52:19.606Z,100772.31
2023-05-17T11:54:51.052Z,100771.50
2023-05-17T11:57:23.988Z,100776.25
2023-05-17T12:00:06.681Z,100778.53
2023-05-17T12:02:43.356Z,100787.34
2023-05-17T12:05:14.480Z,100797.28
2023-05-17T12:07:45.019Z,100789.78
2023-05-17T12:10:18.574Z,100788.63
2023-05-17T12:12:49.112Z,100790.94
2023-05-17T12:15:22.938Z,100797.97
2023-05-17T12:17:55.292Z,100796.81
2023-05-17T12:20:25.942Z,100806.75
2023-05-17T12:22:59.965Z,100803.66
2023-05-17T12:25:32.053Z,100800.53
2023-05-17T12:28:26.258Z,100814.19
2023-05-17T12:31:04.251Z,100813.38
2023-05-17T12:34:50.363Z,100827.41
2023-05-17T12:37:21.087Z,100827.97
2023-05-17T12:39:51.581Z,100828.78
2023-05-17T12:42:22.306Z,100839.50
2023-05-17T12:44:52.776Z,100853.53
2023-05-17T12:47:23.257Z,100855.28
2023-05-17T12:50:01.011Z,100865.22
2023-05-17T12:52:37.716Z,100874.03
2023-05-17T12:55:08.629Z,100876.91
2023-05-17T12:57:39.328Z,100884.09
2023-05-17T13:00:10.530Z,100897.50
2023-05-17T13:02:44.364Z,100896.47
2023-05-17T13:05:25.829Z,100897.63
2023-05-17T13:07:56.557Z,100888.72
2023-05-17T13:10:29.906Z,100896.13
2023-05-17T13:13:01.915Z,100906.31
2023-05-17T13:15:34.333Z,100911.88
2023-05-17T13:18:16.734Z,100919.41
2023-05-17T13:20:47.446Z,100911.75
2023-05-17T13:23:18.892Z,100924.97
2023-05-17T13:25:49.453Z,100928.53
2023-05-17T13:28:21.712Z,100936.22
2023-05-17T13:30:54.518Z,100934.56
2023-05-17T13:33:29.971Z,100941.41
2023-05-17T13:36:05.856Z,100954.28
2023-05-17T13:38:36.410Z,100944.88
2023-05-17T13:41:11.820Z,100950.41
2023-05-17T13:43:43.603Z,100964.44
2023-05-17T13:46:14.126Z,100966.81
2023-05-17T13:48:45.367Z,100971.34
2023-05-17T13:51:16.130Z,100983.13
2023-05-17T13:53:46.813Z,100994.53
2023-05-17T13:56:17.524Z,100998.31
2023-05-17T13:58:48.575Z,100987.75
2023-05-17T14:01:21.032Z,100992.84
2023-05-17T14:03:54.622Z,101008.69
2023-05-17T14:06:36.718Z,101002.78
2023-05-17T14:09:07.672Z,101001.41
2023-05-17T14:11:40.028Z,101006.72
2023-05-17T14:14:10.537Z,101006.50
2023-05-17T14:16:41.395Z,101006.72
2023-05-17T14:19:12.079Z,101017.00
2023-05-17T14:21:42.489Z,101018.78
2023-05-17T14:24:13.041Z,101021.69
2023-05-17T14:26:44.384Z,101020.84
2023-05-17T14:29:14.905Z,101029.41
2023-05-17T14:31:45.710Z,101032.38
2023-05-17T14:34:16.419Z,101030.22
2023-05-17T14:36:47.056Z,101033.66
2023-05-17T14:39:17.629Z,101030.88
2023-05-17T14:41:48.125Z,101030.56
2023-05-17T14:44:19.064Z,101043.50
2023-05-17T14:46:49.432Z,101040.72
2023-05-17T14:49:19.945Z,101039.56
2023-05-17T14:51:50.505Z,101045.31
2023-05-17T14:54:21.117Z,101036.19
2023-05-17T14:56:51.625Z,101033.28
2023-05-17T14:59:22.226Z,101029.34
2023-05-17T15:01:54.129Z,101036.75
2023-05-17T15:04:25.660Z,101043.22
2023-05-17T15:06:56.297Z,101048.31
2023-05-17T15:09:26.705Z,101037.28
2023-05-17T15:11:57.305Z,101045.16
2023-05-17T15:14:28.542Z,101050.22
2023-05-17T15:16:59.846Z,101049.88
2023-05-17T15:19:30.152Z,101055.41
2023-05-17T15:22:01.017Z,101058.19
2023-05-17T15:24:32.128Z,101058.88
2023-05-17T15:27:04.530Z,101070.78
2023-05-17T15:29:35.474Z,101069.63
2023-05-17T15:32:06.041Z,101061.66
2023-05-17T15:34:36.514Z,101065.91
2023-05-17T15:37:07.300Z,101073.09
2023-05-17T15:39:38.248Z,101084.31
2023-05-17T15:42:08.539Z,101077.13
2023-05-17T15:44:39.457Z,101077.84
2023-05-17T15:47:10.052Z,101072.78
2023-05-17T15:49:41.658Z,101075.06
2023-05-17T15:52:12.282Z,101063.25
2023-05-17T15:54:44.542Z,101077.84
2023-05-17T15:57:15.059Z,101076.53
2023-05-17T15:59:45.384Z,101074.59
2023-05-17T16:02:17.106Z,101074.59
2023-05-17T16:04:47.540Z,101068.56
2023-05-17T16:07:18.162Z,101068.56
2023-05-17T16:09:48.524Z,101076.88
2023-05-17T16:12:19.492Z,101069.34
2023-05-17T16:14:50.299Z,101074.47
2023-05-17T16:17:20.965Z,101066.44
2023-05-17T16:19:51.509Z,101066.13
2023-05-17T16:22:22.199Z,101075.13
2023-05-17T16:25:01.184Z,101067.59
2023-05-17T16:27:31.818Z,101061.25
2023-05-17T16:30:02.315Z,101050.47
2023-05-17T16:32:33.330Z,101049.31
2023-05-17T16:35:04.136Z,101049.97
2023-05-17T16:37:34.815Z,101049.97
2023-05-17T16:40:05.976Z,101048.81
2023-05-17T16:42:36.617Z,101038.88
2023-05-17T16:45:07.959Z,101034.00
2023-05-17T16:47:39.055Z,101034.81
2023-05-17T16:50:10.423Z,101032.88
2023-05-17T16:52:41.039Z,101029.25
2023-05-17T16:55:12.803Z,101032.50
2023-05-17T16:57:45.362Z,101030.09
2023-05-17T17:00:16.288Z,101029.25
2023-05-17T17:02:46.769Z,101020.13
2023-05-17T17:05:17.280Z,101030.41
2023-05-17T17:07:49.673Z,101021.28
2023-05-17T17:10:20.259Z,101020.81
2023-05-17T17:12:51.812Z,101015.25
2023-05-17T17:15:22.294Z,101014.78
2023-05-17T17:17:52.746Z,101011.66
2023-05-17T17:20:23.232Z,101009.22
2023-05-17T17:22:53.690Z,101007.59
2023-05-17T17:25:27.102Z,101004.03
2023-05-17T17:27:57.435Z,100998.00
2023-05-17T17:30:28.335Z,100992.47
2023-05-17T17:32:59.266Z,100993.25
2023-05-17T17:35:29.745Z,100994.09
2023-05-17T17:38:00.136Z,100985.75
2023-05-17T17:40:30.797Z,100983.31
2023-05-17T17:43:01.367Z,100964.25
2023-05-17T17:45:31.779Z,100968.50
2023-05-17T17:48:02.377Z,100965.25
2023-05-17T17:50:32.586Z,100959.72
2023-05-17T17:53:03.715Z,100960.19
2023-05-17T17:55:35.137Z,100947.47
2023-05-17T17:58:05.454Z,100948.13
2023-05-17T18:00:35.933Z,100953.69
2023-05-17T18:03:06.595Z,100952.06
2023-05-17T18:05:37.078Z,100960.38
2023-05-17T18:08:07.841Z,100948.13
2023-05-17T18:10:38.273Z,100951.72
2023-05-17T18:13:09.220Z,100950.09
2023-05-17T18:15:40.818Z,100947.66
2023-05-17T18:18:11.251Z,100943.25
2023-05-17T18:20:42.499Z,100960.19
2023-05-17T18:23:12.449Z,100946.16
2023-05-17T18:25:42.824Z,100953.22
2023-05-17T18:28:13.130Z,100945.38
2023-05-17T18:30:44.234Z,100952.06
2023-05-17T18:33:14.938Z,100949.59
2023-05-17T18:35:46.641Z,100943.75
2023-05-17T18:38:17.034Z,100942.13
2023-05-17T18:40:47.484Z,100943.63
2023-05-17T18:43:19.087Z,100940.50
2023-05-17T18:45:49.463Z,100938.06
2023-05-17T18:48:19.996Z,100942.00
2023-05-17T18:50:51.021Z,100935.28
2023-05-17T18:53:21.290Z,100938.88
2023-05-17T18:55:52.063Z,100938.88
2023-05-17T18:58:22.235Z,100931.69
2023-05-17T19:00:52.427Z,100933.31
2023-05-17T19:03:22.968Z,100928.44
2023-05-17T19:05:53.529Z,100928.44
2023-05-17T19:08:23.929Z,100919.78
2023-05-17T19:10:54.408Z,100911.47
2023-05-17T19:13:24.927Z,100917.34
2023-05-17T19:15:55.509Z,100907.75
2023-05-17T19:18:26.004Z,100904.97
2023-05-17T19:20:56.453Z,100905.78
2023-05-17T19:23:27.114Z,100901.84
2023-05-17T19:25:57.892Z,100889.47
2023-05-17T19:28:28.673Z,100883.59
2023-05-17T19:30:59.700Z,100884.28
2023-05-17T19:33:30.120Z,100883.16
2023-05-17T19:36:00.597Z,100880.22
2023-05-17T19:38:31.024Z,100889.34
2023-05-17T19:41:01.804Z,100881.03
2023-05-17T19:43:33.631Z,100867.97
2023-05-17T19:46:04.870Z,100863.56
2023-05-17T19:48:35.396Z,100867.66
2023-05-17T19:51:06.931Z,100856.75
2023-05-17T19:53:48.286Z,100857.56
2023-05-17T19:56:23.941Z,100853.97
2023-05-17T19:58:54.891Z,100859.53
2023-05-17T20:01:25.396Z,100857.91
2023-05-17T20:03:55.867Z,100852.72
2023-05-17T20:06:26.368Z,100855.13
2023-05-17T20:08:56.615Z,100858.38
2023-05-17T20:11:27.191Z,100853.16
2023-05-17T20:13:57.538Z,100852.34
2023-05-17T20:16:30.562Z,100845.19
2023-05-17T20:19:01.494Z,100844.72
2023-05-17T20:21:34.141Z,100844.72
2023-05-17T20:24:06.345Z,100846.34
2023-05-17T20:26:40.144Z,100847.00
2023-05-17T20:29:11.441Z,100854.19
2023-05-17T20:31:42.161Z,100853.69
2023-05-17T20:34:13.391Z,100854.53
2023-05-17T20:36:43.845Z,100850.94
2023-05-17T20:39:14.364Z,100852.56
2023-05-17T20:41:46.706Z,100852.56
2023-05-17T20:44:21.073Z,100862.84
2023-05-17T20:46:51.624Z,100863.16
2023-05-17T20:49:22.250Z,100856.81
2023-05-17T20:51:52.753Z,100855.81
2023-05-17T20:54:23.177Z,100860.75
2023-05-17T20:56:53.799Z,100852.44
2023-05-17T20:59:24.458Z,100865.50
2023-05-17T21:01:55.185Z,100861.09
2023-05-17T21:04:26.832Z,100859.94
2023-05-17T21:07:02.106Z,100862.88
2023-05-17T21:09:34.117Z,100858.66
2023-05-17T21:12:05.445Z,100858.66
2023-05-17T21:14:36.150Z,100866.81
2023-05-17T21:17:06.748Z,100865.19
2023-05-17T21:19:37.254Z,100868.44
2023-05-17T21:22:08.729Z,100867.28
2023-05-17T21:24:39.122Z,100864.03
2023-05-17T21:27:09.925Z,100874.66
2023-05-17T21:29:40.802Z,100872.22
2023-05-17T21:32:11.845Z,100865.53
2023-05-17T21:34:45.747Z,100866.31
2023-05-17T21:37:16.138Z,100872.53
2023-05-17T21:39:46.735Z,100880.06
2023-05-17T21:42:17.922Z,100872.53
2023-05-17T21:44:47.915Z,100882.47
2023-05-17T21:47:18.692Z,100883.16
2023-05-17T21:49:49.270Z,100877.28
2023-05-17T21:52:20.402Z,100886.41
2023-05-17T21:54:50.499Z,100881.22
2023-05-17T21:57:23.256Z,100889.19
2023-05-17T21:59:55.199Z,100886.75
2023-05-17T22:02:25.759Z,100886.88
2023-05-17T22:04:56.776Z,100887.41
2023-05-17T22:07:26.987Z,100890.53
2023-05-17T22:09:57.606Z,100892.47
2023-05-17T22:12:28.670Z,100901.75
2023-05-17T22:15:01.089Z,100900.97
2023-05-17T22:17:47.033Z,100905.69
2023-05-17T22:20:26.696Z,100907.16
2023-05-17T22:22:57.192Z,100906.34
2023-05-17T22:25:27.609Z,100913.19
2023-05-17T22:27:58.159Z,100903.38
2023-05-17T22:30:29.302Z,100918.94
2023-05-17T22:32:59.976Z,100921.03
2023-05-17T22:35:30.309Z,100918.75
2023-05-17T22:38:01.211Z,100927.59
2023-05-17T22:40:32.048Z,100925.28
2023-05-17T22:43:02.662Z,100930.00
2023-05-17T22:45:35.320Z,100929.81
2023-05-17T22:48:22.427Z,100934.88
2023-05-17T22:50:58.512Z,100942.91
2023-05-17T22:53:29.354Z,100951.88
2023-05-17T22:56:00.038Z,100948.66
2023-05-17T22:58:30.508Z,100950.13
2023-05-17T23:01:01.105Z,100937.28
2023-05-17T23:03:31.560Z,100945.91
2023-05-17T23:06:05.751Z,100943.47
2023-05-17T23:08:36.179Z,100953.41
2023-05-17T23:11:08.852Z,100950.16
2023-05-17T23:13:39.327Z,100961.72
2023-05-17T23:16:11.809Z,100962.22
2023-05-17T23:18:42.884Z,100964.66
2023-05-17T23:21:14.442Z,100962.56
2023-05-17T23:23:44.851Z,100964.84
2023-05-17T23:26:18.565Z,100972.03
2023-05-17T23:28:52.712Z,100975.94
2023-05-17T23:31:24.212Z,100976.06
2023-05-17T23:33:56.659Z,100976.22
2023-05-17T23:36:26.953Z,100982.41
2023-05-17T23:38:57.383Z,100990.94
2023-05-17T23:41:28.584Z,100995.47
2023-05-17T23:44:00.966Z,100996.28
2023-05-17T23:46:31.364Z,100994.97
2023-05-17T23:49:01.834Z,101003.78
2023-05-17T23:51:32.347Z,101013.91
2023-05-17T23:54:03.025Z,101018.63
2023-05-17T23:56:33.562Z,101019.94
2023-05-17T23:59:04.427Z,101019.94
